EGMD/LYX METAR and TAF weather

Enter ICAO airport designator
Station Type Date Time Source
EGMD METAR 2019/08/24 08:50 UTC NOAA

EGMD 240850Z 09007KT 7000 NSC 22/18 Q1020


Station Type Date Time Source
EGMD Decoded METAR 2019/08/24 08:50 UTC NOAA

Station name not available
Aug 24, 2019 - 04:50 AM EDT / 2019.08.24 0850 UTC
Wind: from the E (090 degrees) at 8 MPH (7 KT):0
Visibility: 4 mile(s):0
Temperature: 71 F (22 C)
Dew Point: 64 F (18 C)
Relative Humidity: 78%
Pressure (altimeter): 30.12 in. Hg (1020 hPa)
ob: EGMD 240850Z 09007KT 7000 NSC 22/18 Q1020
cycle: 9

Station Type Date Time Source
EGMD TAF UTC NOAA

Error!

Example: see airport list